createdAt,value
2018-04-06T00:00:50.681Z,959.18
2018-04-06T00:01:50.666Z,959.27
2018-04-06T00:02:50.653Z,959.24
2018-04-06T00:03:50.633Z,959.26
2018-04-06T00:04:50.624Z,959.3
2018-04-06T00:05:50.601Z,959.27
2018-04-06T00:06:50.586Z,959.24
2018-04-06T00:07:50.570Z,959.26
2018-04-06T00:08:50.553Z,959.3
2018-04-06T00:09:50.535Z,959.24
2018-04-06T00:10:50.520Z,959.24
2018-04-06T00:11:50.503Z,959.18
2018-04-06T00:12:50.488Z,959.2
2018-04-06T00:13:50.473Z,959.24
2018-04-06T00:14:50.456Z,959.23
2018-04-06T00:15:50.438Z,959.23
2018-04-06T00:16:50.422Z,959.25
2018-04-06T00:17:50.406Z,959.24
2018-04-06T00:18:50.389Z,959.24
2018-04-06T00:19:50.372Z,959.25
2018-04-06T00:20:50.357Z,959.29
2018-04-06T00:21:50.340Z,959.29
2018-04-06T00:22:50.324Z,959.25
2018-04-06T00:23:50.306Z,959.31
2018-04-06T00:24:50.290Z,959.31
2018-04-06T00:25:50.272Z,959.28
2018-04-06T00:26:50.256Z,959.32
2018-04-06T00:27:50.240Z,959.31
2018-04-06T00:28:50.224Z,959.32
2018-04-06T00:29:50.206Z,959.35
2018-04-06T00:30:50.190Z,959.33
2018-04-06T00:31:50.174Z,959.36
2018-04-06T00:32:50.155Z,959.31
2018-04-06T00:33:50.141Z,959.33
2018-04-06T00:34:50.123Z,959.36
2018-04-06T00:35:50.107Z,959.37
2018-04-06T00:36:50.089Z,959.4
2018-04-06T00:37:50.074Z,959.34
2018-04-06T00:38:50.056Z,959.34
2018-04-06T00:39:50.040Z,959.31
2018-04-06T00:40:50.024Z,959.36
2018-04-06T00:41:50.009Z,959.34
2018-04-06T00:42:49.991Z,959.36
2018-04-06T00:43:49.973Z,959.37
2018-04-06T00:44:49.957Z,959.37
2018-04-06T00:45:49.940Z,959.36
2018-04-06T00:46:49.923Z,959.43
2018-04-06T00:47:49.905Z,959.45
2018-04-06T00:48:49.889Z,959.5
2018-04-06T00:49:49.871Z,959.47
2018-04-06T00:50:49.854Z,959.48
2018-04-06T00:51:49.838Z,959.51
2018-04-06T00:52:49.821Z,959.47
2018-04-06T00:53:49.804Z,959.52
2018-04-06T00:54:49.786Z,959.48
2018-04-06T00:55:49.771Z,959.5
2018-04-06T00:56:49.752Z,959.51
2018-04-06T00:57:49.735Z,959.47
2018-04-06T00:58:49.719Z,959.46
2018-04-06T00:59:49.701Z,959.44
2018-04-06T01:00:49.685Z,959.44
2018-04-06T01:01:49.668Z,959.43
2018-04-06T01:02:49.653Z,959.47
2018-04-06T01:03:49.635Z,959.53
2018-04-06T01:04:49.615Z,959.54
2018-04-06T01:05:49.599Z,959.61
2018-04-06T01:06:49.583Z,959.57
2018-04-06T01:07:49.565Z,959.57
2018-04-06T01:08:49.592Z,959.58
2018-04-06T01:09:49.530Z,959.58
2018-04-06T01:10:49.513Z,959.59
2018-04-06T01:11:49.496Z,959.61
2018-04-06T01:12:49.478Z,959.62
2018-04-06T01:13:49.461Z,959.6
2018-04-06T01:14:49.449Z,959.57
2018-04-06T01:15:49.426Z,959.57
2018-04-06T01:16:49.409Z,959.53
2018-04-06T01:17:49.391Z,959.51
2018-04-06T01:18:49.376Z,959.49
2018-04-06T01:19:49.357Z,959.49
2018-04-06T01:20:49.340Z,959.51
2018-04-06T01:21:49.324Z,959.53
2018-04-06T01:22:49.305Z,959.63
2018-04-06T01:23:49.289Z,959.68
2018-04-06T01:24:49.270Z,959.63
2018-04-06T01:25:49.255Z,959.7
2018-04-06T01:26:49.235Z,959.73
2018-04-06T01:27:49.219Z,959.73
2018-04-06T01:28:49.204Z,959.67
2018-04-06T01:29:49.187Z,959.71
2018-04-06T01:30:49.167Z,959.67
2018-04-06T01:31:49.150Z,959.64
2018-04-06T01:32:49.132Z,959.61
2018-04-06T01:33:49.116Z,959.63
2018-04-06T01:34:49.097Z,959.59
2018-04-06T01:35:49.080Z,959.58
2018-04-06T01:36:49.069Z,959.53
2018-04-06T01:37:49.044Z,959.54
2018-04-06T01:38:49.028Z,959.62
2018-04-06T01:39:49.010Z,959.61
2018-04-06T01:40:48.993Z,959.62
2018-04-06T01:41:48.976Z,959.65
2018-04-06T01:42:48.958Z,959.65
2018-04-06T01:43:48.941Z,959.71
2018-04-06T01:44:48.924Z,959.73
2018-04-06T01:45:48.905Z,959.73
2018-04-06T01:46:48.890Z,959.7
2018-04-06T01:47:48.871Z,959.73
2018-04-06T01:48:48.857Z,959.74
2018-04-06T01:49:48.837Z,959.72
2018-04-06T01:50:48.818Z,959.66
2018-04-06T01:51:48.803Z,959.72
2018-04-06T01:52:48.784Z,959.72
2018-04-06T01:53:48.767Z,959.73
2018-04-06T01:54:48.749Z,959.71
2018-04-06T01:55:48.732Z,959.68
2018-04-06T01:56:48.717Z,959.76
2018-04-06T01:57:48.697Z,959.75
2018-04-06T01:58:48.680Z,959.76
2018-04-06T01:59:48.664Z,959.77
2018-04-06T02:00:48.648Z,959.74
2018-04-06T02:01:48.628Z,959.78
2018-04-06T02:02:48.611Z,959.8
2018-04-06T02:03:48.594Z,959.77
2018-04-06T02:04:48.575Z,959.78
2018-04-06T02:05:48.564Z,959.78
2018-04-06T02:06:48.542Z,959.76
2018-04-06T02:07:48.524Z,959.8
2018-04-06T02:08:48.508Z,959.79
2018-04-06T02:09:48.490Z,959.75
2018-04-06T02:10:48.473Z,959.78
2018-04-06T02:11:48.455Z,959.78
2018-04-06T02:12:48.440Z,959.79
2018-04-06T02:13:48.426Z,959.84
2018-04-06T02:14:48.405Z,959.79
2018-04-06T02:15:48.388Z,959.85
2018-04-06T02:16:48.371Z,959.82
2018-04-06T02:17:48.354Z,959.81
2018-04-06T02:18:48.337Z,959.83
2018-04-06T02:19:48.321Z,959.82
2018-04-06T02:20:48.303Z,959.83
2018-04-06T02:21:48.285Z,959.88
2018-04-06T02:22:48.268Z,959.87
2018-04-06T02:23:48.252Z,959.91
2018-04-06T02:24:48.286Z,959.85
2018-04-06T02:25:48.217Z,959.86
2018-04-06T02:26:48.200Z,959.85
2018-04-06T02:27:48.184Z,959.83
2018-04-06T02:28:48.166Z,959.84
2018-04-06T02:29:48.150Z,959.86
2018-04-06T02:30:48.134Z,959.83
2018-04-06T02:31:48.119Z,959.84
2018-04-06T02:32:48.100Z,959.84
2018-04-06T02:33:48.081Z,959.92
2018-04-06T02:34:48.062Z,959.87
2018-04-06T02:35:48.046Z,959.87
2018-04-06T02:36:48.028Z,959.95
2018-04-06T02:37:48.010Z,959.99
2018-04-06T02:38:47.995Z,959.97
2018-04-06T02:39:47.976Z,960
2018-04-06T02:40:47.959Z,960.05
2018-04-06T02:41:47.940Z,960.06
2018-04-06T02:42:47.925Z,960.03
2018-04-06T02:43:47.908Z,960
2018-04-06T02:44:47.895Z,960
2018-04-06T02:45:47.873Z,959.98
2018-04-06T02:46:47.856Z,959.95
2018-04-06T02:47:47.838Z,959.94
2018-04-06T02:48:47.820Z,959.97
2018-04-06T02:49:47.804Z,959.95
2018-04-06T02:50:47.784Z,960.01
2018-04-06T02:51:47.768Z,960
2018-04-06T02:52:47.750Z,960.04
2018-04-06T02:53:47.733Z,960.02
2018-04-06T02:54:47.715Z,960.05
2018-04-06T02:55:47.698Z,960.03
2018-04-06T02:56:47.681Z,960
2018-04-06T02:57:47.663Z,960.03
2018-04-06T02:58:47.644Z,960.04
2018-04-06T02:59:47.627Z,960.01
2018-04-06T03:00:47.610Z,960.02
2018-04-06T03:01:47.594Z,959.99
2018-04-06T03:02:47.577Z,959.99
2018-04-06T03:03:47.558Z,960.05
2018-04-06T03:04:47.540Z,960.01
2018-04-06T03:05:47.523Z,960.03
2018-04-06T03:06:47.504Z,960.04
2018-04-06T03:07:47.488Z,960.02
2018-04-06T03:08:47.469Z,960
2018-04-06T03:09:47.452Z,960.03
2018-04-06T03:10:47.433Z,960.04
2018-04-06T03:11:47.416Z,960.06
2018-04-06T03:12:47.398Z,960.03
2018-04-06T03:13:47.380Z,960.05
2018-04-06T03:14:47.365Z,959.99
2018-04-06T03:15:47.345Z,959.97
2018-04-06T03:16:47.329Z,959.94
2018-04-06T03:17:47.310Z,959.95
2018-04-06T03:18:47.291Z,959.91
2018-04-06T03:19:47.274Z,959.94
2018-04-06T03:20:47.256Z,959.95
2018-04-06T03:21:47.238Z,959.94
2018-04-06T03:22:47.221Z,959.96
2018-04-06T03:23:47.202Z,959.91
2018-04-06T03:24:47.184Z,959.92
2018-04-06T03:25:47.167Z,959.88
2018-04-06T03:26:47.152Z,959.87
2018-04-06T03:27:47.131Z,959.92
2018-04-06T03:28:47.112Z,959.96
2018-04-06T03:29:47.095Z,959.91
2018-04-06T03:30:47.078Z,959.9
2018-04-06T03:31:47.061Z,959.86
2018-04-06T03:32:47.040Z,959.84
2018-04-06T03:33:47.024Z,959.86
2018-04-06T03:34:47.005Z,959.86
2018-04-06T03:35:46.987Z,959.9
2018-04-06T03:36:46.970Z,959.91
2018-04-06T03:37:46.951Z,959.96
2018-04-06T03:38:46.934Z,959.87
2018-04-06T03:39:46.916Z,959.92
2018-04-06T03:40:46.897Z,959.95
2018-04-06T03:41:46.878Z,959.92
2018-04-06T03:42:46.862Z,959.93
2018-04-06T03:43:46.841Z,959.93
2018-04-06T03:44:46.828Z,959.91
2018-04-06T03:45:46.807Z,959.91
2018-04-06T03:46:46.788Z,959.88
2018-04-06T03:47:46.771Z,959.86
2018-04-06T03:48:46.751Z,959.88
2018-04-06T03:49:46.732Z,959.84
2018-04-06T03:50:46.716Z,959.84
2018-04-06T03:51:46.698Z,959.86
2018-04-06T03:52:46.690Z,959.85
2018-04-06T03:53:46.663Z,959.88
2018-04-06T03:54:46.643Z,959.91
2018-04-06T03:55:46.625Z,959.91
2018-04-06T03:56:46.615Z,959.87
2018-04-06T03:57:46.589Z,959.85
2018-04-06T03:58:46.570Z,959.87
2018-04-06T03:59:46.554Z,959.85
2018-04-06T04:00:46.535Z,959.88
2018-04-06T04:01:46.516Z,959.85
2018-04-06T04:02:46.497Z,959.86
2018-04-06T04:03:46.481Z,959.82
2018-04-06T04:04:46.463Z,959.79
2018-04-06T04:05:46.442Z,959.86
2018-04-06T04:06:46.424Z,959.86
2018-04-06T04:07:46.406Z,959.88
2018-04-06T04:08:46.388Z,959.86
2018-04-06T04:09:46.369Z,959.84
2018-04-06T04:10:46.352Z,959.86
2018-04-06T04:11:46.331Z,959.89
2018-04-06T04:12:46.314Z,959.84
2018-04-06T04:13:46.297Z,959.83
2018-04-06T04:14:46.279Z,959.84
2018-04-06T04:15:46.259Z,959.8
2018-04-06T04:16:46.242Z,959.78
2018-04-06T04:17:46.222Z,959.8
2018-04-06T04:18:46.203Z,959.76
2018-04-06T04:19:46.186Z,959.78
2018-04-06T04:20:46.167Z,959.76
2018-04-06T04:21:46.150Z,959.81
2018-04-06T04:22:46.130Z,959.83
2018-04-06T04:23:46.112Z,959.88
2018-04-06T04:24:46.094Z,959.88
2018-04-06T04:25:46.075Z,959.89
2018-04-06T04:26:46.056Z,959.93
2018-04-06T04:27:46.038Z,959.89
2018-04-06T04:28:46.020Z,959.92
2018-04-06T04:29:46.002Z,959.87
2018-04-06T04:30:45.983Z,959.97
2018-04-06T04:31:45.963Z,959.98
2018-04-06T04:32:45.945Z,959.96
2018-04-06T04:33:45.934Z,959.97
2018-04-06T04:34:45.908Z,960.01
2018-04-06T04:35:45.889Z,960
2018-04-06T04:36:45.871Z,960.04
2018-04-06T04:37:45.853Z,959.98
2018-04-06T04:38:45.835Z,959.99
2018-04-06T04:39:45.815Z,960.01
2018-04-06T04:40:45.796Z,960.07
2018-04-06T04:41:45.778Z,960.17
2018-04-06T04:42:45.765Z,960.13
2018-04-06T04:43:45.747Z,960.15
2018-04-06T04:44:45.723Z,960.15
2018-04-06T04:45:45.718Z,960.17
2018-04-06T04:46:45.751Z,960.19
2018-04-06T04:47:45.668Z,960.14
2018-04-06T04:48:45.648Z,960.1
2018-04-06T04:49:45.629Z,960.1
2018-04-06T04:50:45.612Z,960.07
2018-04-06T04:51:45.594Z,960.09
2018-04-06T04:52:45.573Z,960.1
2018-04-06T04:53:45.555Z,960.1
2018-04-06T04:54:45.536Z,960.12
2018-04-06T04:55:45.520Z,960.16
2018-04-06T04:56:45.499Z,960.13
2018-04-06T04:57:45.481Z,960.12
2018-04-06T04:58:45.462Z,960.06
2018-04-06T04:59:45.444Z,960.06
2018-04-06T05:00:45.424Z,960.07
2018-04-06T05:01:45.407Z,960.05
2018-04-06T05:02:45.387Z,960.03
2018-04-06T05:03:45.371Z,960.06
2018-04-06T05:04:45.350Z,960.05
2018-04-06T05:05:45.333Z,960.1
2018-04-06T05:06:45.314Z,960.1
2018-04-06T05:07:45.293Z,960.19
2018-04-06T05:08:45.275Z,960.22
2018-04-06T05:09:45.262Z,960.22
2018-04-06T05:10:45.238Z,960.27
2018-04-06T05:11:45.219Z,960.3
2018-04-06T05:12:45.200Z,960.33
2018-04-06T05:13:45.182Z,960.37
2018-04-06T05:14:45.163Z,960.33
2018-04-06T05:15:45.149Z,960.35
2018-04-06T05:16:45.127Z,960.34
2018-04-06T05:17:45.109Z,960.33
2018-04-06T05:18:45.095Z,960.39
2018-04-06T05:19:45.072Z,960.45
2018-04-06T05:20:45.053Z,960.46
2018-04-06T05:21:45.032Z,960.45
2018-04-06T05:22:45.015Z,960.5
2018-04-06T05:23:45.005Z,960.52
2018-04-06T05:24:44.978Z,960.56
2018-04-06T05:25:44.964Z,960.59
2018-04-06T05:26:44.942Z,960.57
2018-04-06T05:27:44.924Z,960.61
2018-04-06T05:28:44.905Z,960.64
2018-04-06T05:29:44.886Z,960.63
2018-04-06T05:30:44.918Z,960.64
2018-04-06T05:31:44.849Z,960.64
2018-04-06T05:32:44.829Z,960.66
2018-04-06T05:33:44.812Z,960.67
2018-04-06T05:34:44.795Z,960.7
2018-04-06T05:35:44.774Z,960.69
2018-04-06T05:36:44.756Z,960.7
2018-04-06T05:37:44.739Z,960.73
2018-04-06T05:38:44.746Z,960.75
2018-04-06T05:39:44.701Z,960.73
2018-04-06T05:40:44.685Z,960.72
2018-04-06T05:41:44.666Z,960.71
2018-04-06T05:42:44.646Z,960.75
2018-04-06T05:43:44.628Z,960.73
2018-04-06T05:44:44.609Z,960.72
2018-04-06T05:45:44.591Z,960.73
2018-04-06T05:46:44.572Z,960.74
2018-04-06T05:47:44.559Z,960.75
2018-04-06T05:48:44.544Z,960.76
2018-04-06T05:49:44.517Z,960.79
2018-04-06T05:50:44.498Z,960.8
2018-04-06T05:51:44.480Z,960.81
2018-04-06T05:52:44.464Z,960.79
2018-04-06T05:53:44.445Z,960.83
2018-04-06T05:54:44.426Z,960.83
2018-04-06T05:55:44.408Z,960.87
2018-04-06T05:56:44.390Z,960.81
2018-04-06T05:57:44.372Z,960.85
2018-04-06T05:58:44.353Z,960.88
2018-04-06T05:59:44.335Z,960.87
2018-04-06T06:00:44.318Z,960.85
2018-04-06T06:01:44.300Z,960.88
2018-04-06T06:02:44.284Z,960.87
2018-04-06T06:03:44.263Z,960.86
2018-04-06T06:04:44.245Z,960.88
2018-04-06T06:05:44.225Z,960.88
2018-04-06T06:06:44.208Z,960.9
2018-04-06T06:07:44.189Z,960.92
2018-04-06T06:08:44.171Z,960.93
2018-04-06T06:09:44.153Z,960.9
2018-04-06T06:10:44.136Z,960.93
2018-04-06T06:11:44.118Z,960.97
2018-04-06T06:12:44.099Z,960.89
2018-04-06T06:13:44.083Z,960.92
2018-04-06T06:14:44.065Z,960.86
2018-04-06T06:15:44.051Z,960.85
2018-04-06T06:16:44.029Z,960.88
2018-04-06T06:17:44.057Z,960.89
2018-04-06T06:18:43.994Z,960.9
2018-04-06T06:19:43.974Z,960.89
2018-04-06T06:20:43.957Z,960.88
2018-04-06T06:21:43.940Z,960.92
2018-04-06T06:22:43.921Z,960.92
2018-04-06T06:23:43.904Z,960.94
2018-04-06T06:24:43.884Z,960.93
2018-04-06T06:25:43.869Z,960.94
2018-04-06T06:26:43.850Z,960.95
2018-04-06T06:27:43.832Z,960.93
2018-04-06T06:28:43.816Z,960.92
2018-04-06T06:29:43.798Z,960.97
2018-04-06T06:30:43.780Z,960.93
2018-04-06T06:31:43.763Z,960.99
2018-04-06T06:32:43.745Z,960.99
2018-04-06T06:33:43.727Z,960.99
2018-04-06T06:34:43.710Z,961.02
2018-04-06T06:35:43.692Z,960.95
2018-04-06T06:36:43.681Z,960.99
2018-04-06T06:37:43.657Z,960.98
2018-04-06T06:38:43.639Z,960.95
2018-04-06T06:39:43.621Z,960.99
2018-04-06T06:40:43.605Z,961.03
2018-04-06T06:41:43.592Z,961.04
2018-04-06T06:42:43.571Z,960.99
2018-04-06T06:43:43.553Z,961.01
2018-04-06T06:44:43.536Z,961.05
2018-04-06T06:45:43.520Z,961.07
2018-04-06T06:46:43.503Z,961.07
2018-04-06T06:47:43.486Z,961.11
2018-04-06T06:48:43.471Z,961.1
2018-04-06T06:49:43.453Z,961.11
2018-04-06T06:50:43.439Z,961.15
2018-04-06T06:51:43.422Z,961.17
2018-04-06T06:52:43.406Z,961.23
2018-04-06T06:53:43.392Z,961.24
2018-04-06T06:54:43.379Z,961.24
2018-04-06T06:55:43.365Z,961.28
2018-04-06T06:56:43.346Z,961.22
2018-04-06T06:57:43.333Z,961.21
2018-04-06T06:58:43.318Z,961.24
2018-04-06T06:59:43.303Z,961.23
2018-04-06T07:00:43.292Z,961.29
2018-04-06T07:01:43.279Z,961.33
2018-04-06T07:02:43.265Z,961.39
2018-04-06T07:03:43.251Z,961.4
2018-04-06T07:04:43.239Z,961.43
2018-04-06T07:05:43.228Z,961.48
2018-04-06T07:06:43.219Z,961.62
2018-04-06T07:07:43.202Z,961.65
2018-04-06T07:08:43.190Z,961.64
2018-04-06T07:09:43.177Z,961.54
2018-04-06T07:10:43.165Z,961.41
2018-04-06T07:11:43.154Z,961.31
2018-04-06T07:12:43.141Z,961.26
2018-04-06T07:13:43.135Z,961.23
2018-04-06T07:14:43.120Z,961.29
2018-04-06T07:15:43.106Z,961.24
2018-04-06T07:16:43.096Z,961.27
2018-04-06T07:17:43.084Z,961.26
2018-04-06T07:18:43.073Z,961.26
2018-04-06T07:19:43.062Z,961.24
2018-04-06T07:20:43.052Z,961.22
2018-04-06T07:21:43.040Z,961.2
2018-04-06T07:22:43.028Z,961.22
2018-04-06T07:23:43.016Z,961.2
2018-04-06T07:24:43.006Z,961.18
2018-04-06T07:25:43.004Z,961.21
2018-04-06T07:26:42.983Z,961.18
2018-04-06T07:27:42.972Z,961.2
2018-04-06T07:28:42.960Z,961.17
2018-04-06T07:29:42.962Z,961.16
2018-04-06T07:30:42.936Z,961.17
2018-04-06T07:31:42.924Z,961.12
2018-04-06T07:32:42.913Z,961.13
2018-04-06T07:33:42.902Z,961.12
2018-04-06T07:34:42.890Z,961.15
2018-04-06T07:35:42.878Z,961.12
2018-04-06T07:36:42.865Z,961.13
2018-04-06T07:37:42.857Z,961.12
2018-04-06T07:38:42.841Z,961.09
2018-04-06T07:39:42.829Z,961.12
2018-04-06T07:40:42.816Z,961.16
2018-04-06T07:41:42.803Z,961.14
2018-04-06T07:42:42.792Z,961.13
2018-04-06T07:43:42.798Z,961.12
2018-04-06T07:44:42.766Z,961.11
2018-04-06T07:45:42.751Z,961.13
2018-04-06T07:46:42.739Z,961.14
2018-04-06T07:47:42.726Z,961.15
2018-04-06T07:48:42.714Z,961.18
2018-04-06T07:49:42.700Z,961.15
2018-04-06T07:50:42.738Z,961.17
2018-04-06T07:51:42.674Z,961.14
2018-04-06T07:52:42.660Z,961.16
2018-04-06T07:53:42.647Z,961.13
2018-04-06T07:54:42.634Z,961.11
2018-04-06T07:55:42.620Z,961.09
2018-04-06T07:56:42.607Z,961.06
2018-04-06T07:57:42.595Z,961.06
2018-04-06T07:58:42.580Z,961.08
2018-04-06T07:59:42.568Z,961.09
2018-04-06T08:00:42.555Z,961.1
2018-04-06T08:01:42.542Z,961.09
2018-04-06T08:02:42.527Z,961.13
2018-04-06T08:03:42.516Z,961.09
2018-04-06T08:04:42.501Z,961.09
2018-04-06T08:05:42.487Z,961.1
2018-04-06T08:06:42.475Z,961.16
2018-04-06T08:07:42.461Z,961.12
2018-04-06T08:08:42.448Z,961.12
2018-04-06T08:09:42.433Z,961.15
2018-04-06T08:10:42.422Z,961.16
2018-04-06T08:11:42.412Z,961.21
2018-04-06T08:12:42.395Z,961.18
2018-04-06T08:13:42.384Z,961.16
2018-04-06T08:14:42.369Z,961.14
2018-04-06T08:15:42.355Z,961.13
2018-04-06T08:16:42.342Z,961.14
2018-04-06T08:17:42.328Z,961.13
2018-04-06T08:18:42.315Z,961.14
2018-04-06T08:19:42.303Z,961.11
2018-04-06T08:20:42.288Z,961.12
2018-04-06T08:21:42.275Z,961.17
2018-04-06T08:22:42.263Z,961.2
2018-04-06T08:23:42.249Z,961.19
2018-04-06T08:24:42.236Z,961.16
2018-04-06T08:25:42.223Z,961.15
2018-04-06T08:26:42.210Z,961.15
2018-04-06T08:27:42.197Z,961.12
2018-04-06T08:28:42.184Z,961.13
2018-04-06T08:29:42.171Z,961.14
2018-04-06T08:30:42.161Z,961.14
2018-04-06T08:31:42.143Z,961.12
2018-04-06T08:32:42.130Z,961.1
2018-04-06T08:33:42.117Z,961.14
2018-04-06T08:34:42.105Z,961.16
2018-04-06T08:35:42.103Z,961.2
2018-04-06T08:36:42.079Z,961.19
2018-04-06T08:37:42.064Z,961.17
2018-04-06T08:38:42.053Z,961.16
2018-04-06T08:39:42.040Z,961.18
2018-04-06T08:40:42.029Z,961.13
2018-04-06T08:41:42.015Z,961.19
2018-04-06T08:42:42.006Z,961.13
2018-04-06T08:43:41.989Z,961.14
2018-04-06T08:44:41.977Z,961.12
2018-04-06T08:45:41.968Z,961.08
2018-04-06T08:46:41.948Z,961.14
2018-04-06T08:47:41.937Z,961.13
2018-04-06T08:48:41.924Z,961.1
2018-04-06T08:49:41.911Z,961.13
2018-04-06T08:50:41.898Z,961.08
2018-04-06T08:51:41.885Z,961.08
2018-04-06T08:52:41.871Z,961.04
2018-04-06T08:53:41.858Z,961
2018-04-06T08:54:41.893Z,961.01
2018-04-06T08:55:41.837Z,961.03
2018-04-06T08:56:41.820Z,961.06
2018-04-06T08:57:41.807Z,961.09
2018-04-06T08:58:41.795Z,961.09
2018-04-06T08:59:41.785Z,961.04
2018-04-06T09:00:41.774Z,961.08
2018-04-06T09:01:41.757Z,961.06
2018-04-06T09:02:41.744Z,961.05
2018-04-06T09:03:41.730Z,961.04
2018-04-06T09:04:41.737Z,961.08
2018-04-06T09:05:41.706Z,961.04
2018-04-06T09:06:41.694Z,961.08
2018-04-06T09:07:41.682Z,961.06
2018-04-06T09:08:41.669Z,961.07
2018-04-06T09:09:41.656Z,961.02
2018-04-06T09:10:41.644Z,961.03
2018-04-06T09:11:41.629Z,961.01
2018-04-06T09:12:41.630Z,961.04
2018-04-06T09:13:41.620Z,961.01
2018-04-06T09:14:41.597Z,961.02
2018-04-06T09:15:41.582Z,961.04
2018-04-06T09:16:41.567Z,961.01
2018-04-06T09:17:41.563Z,961.02
2018-04-06T09:18:41.543Z,961.01
2018-04-06T09:19:41.531Z,960.96
2018-04-06T09:20:41.518Z,960.96
2018-04-06T09:21:41.506Z,960.95
2018-04-06T09:22:41.493Z,960.89
2018-04-06T09:23:41.480Z,960.89
2018-04-06T09:24:41.470Z,960.89
2018-04-06T09:25:41.462Z,960.87
2018-04-06T09:26:41.447Z,960.89
2018-04-06T09:27:41.448Z,960.89
2018-04-06T09:28:41.420Z,960.86
2018-04-06T09:29:41.406Z,960.89
2018-04-06T09:30:41.396Z,960.86
2018-04-06T09:31:41.383Z,960.84
2018-04-06T09:32:41.371Z,960.85
2018-04-06T09:33:41.358Z,960.84
2018-04-06T09:34:41.348Z,960.82
2018-04-06T09:35:41.333Z,960.8
2018-04-06T09:36:41.322Z,960.79
2018-04-06T09:37:41.309Z,960.8
2018-04-06T09:38:41.298Z,960.76
2018-04-06T09:39:41.286Z,960.71
2018-04-06T09:40:41.275Z,960.77
2018-04-06T09:41:41.263Z,960.75
2018-04-06T09:42:41.256Z,960.7
2018-04-06T09:43:41.240Z,960.72
2018-04-06T09:44:41.226Z,960.66
2018-04-06T09:45:41.248Z,960.73
2018-04-06T09:46:41.204Z,960.7
2018-04-06T09:47:41.192Z,960.7
2018-04-06T09:48:41.180Z,960.69
2018-04-06T09:49:41.170Z,960.65
2018-04-06T09:50:41.163Z,960.68
2018-04-06T09:51:41.144Z,960.65
2018-04-06T09:52:41.135Z,960.62
2018-04-06T09:53:41.121Z,960.65
2018-04-06T09:54:41.110Z,960.6
2018-04-06T09:55:41.102Z,960.6
2018-04-06T09:56:41.105Z,960.62
2018-04-06T09:57:41.076Z,960.61
2018-04-06T09:58:41.065Z,960.59
2018-04-06T09:59:41.052Z,960.58
2018-04-06T10:00:41.042Z,960.57
2018-04-06T10:01:41.032Z,960.55
2018-04-06T10:02:41.021Z,960.48
2018-04-06T10:03:41.012Z,960.5
2018-04-06T10:04:40.998Z,960.55
2018-04-06T10:05:40.986Z,960.5
2018-04-06T10:06:40.973Z,960.46
2018-04-06T10:07:40.963Z,960.47
2018-04-06T10:08:41.018Z,960.45
2018-04-06T10:09:40.943Z,960.46
2018-04-06T10:10:40.932Z,960.49
2018-04-06T10:11:40.921Z,960.49
2018-04-06T10:12:40.910Z,960.49
2018-04-06T10:13:40.902Z,960.48
2018-04-06T10:14:40.888Z,960.49
2018-04-06T10:15:40.878Z,960.5
2018-04-06T10:16:40.867Z,960.43
2018-04-06T10:17:40.856Z,960.41
2018-04-06T10:18:40.848Z,960.42
2018-04-06T10:19:40.838Z,960.38
2018-04-06T10:20:40.823Z,960.34
2018-04-06T10:21:40.813Z,960.37
2018-04-06T10:22:40.802Z,960.34
2018-04-06T10:23:40.793Z,960.33
2018-04-06T10:24:40.781Z,960.3
2018-04-06T10:25:40.771Z,960.32
2018-04-06T10:26:40.761Z,960.32
2018-04-06T10:27:40.750Z,960.36
2018-04-06T10:28:40.738Z,960.31
2018-04-06T10:29:40.728Z,960.29
2018-04-06T10:30:40.717Z,960.23
2018-04-06T10:31:40.707Z,960.22
2018-04-06T10:32:40.700Z,960.25
2018-04-06T10:33:40.689Z,960.22
2018-04-06T10:34:40.675Z,960.23
2018-04-06T10:35:40.669Z,960.23
2018-04-06T10:36:40.654Z,960.22
2018-04-06T10:37:40.644Z,960.25
2018-04-06T10:38:40.633Z,960.29
2018-04-06T10:39:40.621Z,960.24
2018-04-06T10:40:40.611Z,960.2
2018-04-06T10:41:40.602Z,960.16
2018-04-06T10:42:40.595Z,960.15
2018-04-06T10:43:40.579Z,960.13
2018-04-06T10:44:40.568Z,960.18
2018-04-06T10:45:40.559Z,960.19
2018-04-06T10:46:40.548Z,960.16
2018-04-06T10:47:40.538Z,960.13
2018-04-06T10:48:40.527Z,960.15
2018-04-06T10:49:40.517Z,960.14
2018-04-06T10:50:40.508Z,960.1
2018-04-06T10:51:40.496Z,960.06
2018-04-06T10:52:40.486Z,960.05
2018-04-06T10:53:40.474Z,960.04
2018-04-06T10:54:40.464Z,960.07
2018-04-06T10:55:40.455Z,960.09
2018-04-06T10:56:40.443Z,960.05
2018-04-06T10:57:40.433Z,959.99
2018-04-06T10:58:40.437Z,960.02
2018-04-06T10:59:40.413Z,959.99
2018-04-06T11:00:40.406Z,960.01
2018-04-06T11:01:40.390Z,960
2018-04-06T11:02:40.382Z,960.01
2018-04-06T11:03:40.370Z,960.01
2018-04-06T11:04:40.360Z,959.99
2018-04-06T11:05:40.349Z,959.94
2018-04-06T11:06:40.339Z,959.95
2018-04-06T11:07:40.330Z,959.91
2018-04-06T11:08:40.319Z,959.96
2018-04-06T11:09:40.309Z,959.97
2018-04-06T11:10:40.299Z,959.97
2018-04-06T11:11:40.290Z,959.95
2018-04-06T11:12:40.278Z,959.89
2018-04-06T11:13:40.269Z,959.9
2018-04-06T11:14:40.258Z,959.89
2018-04-06T11:15:40.248Z,959.86
2018-04-06T11:16:40.239Z,959.87
2018-04-06T11:17:40.236Z,959.86
2018-04-06T11:18:40.221Z,959.88
2018-04-06T11:19:40.211Z,959.85
2018-04-06T11:20:40.201Z,959.82
2018-04-06T11:21:40.199Z,959.86
2018-04-06T11:22:40.180Z,959.83
2018-04-06T11:23:40.170Z,959.84
2018-04-06T11:24:40.161Z,959.8
2018-04-06T11:25:40.152Z,959.81
2018-04-06T11:26:40.142Z,959.8
2018-04-06T11:27:40.133Z,959.76
2018-04-06T11:28:40.122Z,959.77
2018-04-06T11:29:40.114Z,959.76
2018-04-06T11:30:40.104Z,959.76
2018-04-06T11:31:40.095Z,959.77
2018-04-06T11:32:40.087Z,959.77
2018-04-06T11:33:40.077Z,959.79
2018-04-06T11:34:40.066Z,959.74
2018-04-06T11:35:40.060Z,959.7
2018-04-06T11:36:40.051Z,959.76
2018-04-06T11:37:40.038Z,959.72
2018-04-06T11:38:40.030Z,959.71
2018-04-06T11:39:40.019Z,959.74
2018-04-06T11:40:40.012Z,959.69
2018-04-06T11:41:40.000Z,959.69
2018-04-06T11:42:39.996Z,959.72
2018-04-06T11:43:39.985Z,959.68
2018-04-06T11:44:39.972Z,959.66
2018-04-06T11:45:39.965Z,959.67
2018-04-06T11:46:39.955Z,959.62
2018-04-06T11:47:39.944Z,959.62
2018-04-06T11:48:39.935Z,959.65
2018-04-06T11:49:39.926Z,959.65
2018-04-06T11:50:39.917Z,959.65
2018-04-06T11:51:39.907Z,959.63
2018-04-06T11:52:39.897Z,959.61
2018-04-06T11:53:39.889Z,959.59
2018-04-06T11:54:39.878Z,959.6
2018-04-06T11:55:39.869Z,959.57
2018-04-06T11:56:39.863Z,959.57
2018-04-06T11:57:39.852Z,959.51
2018-04-06T11:58:39.842Z,959.56
2018-04-06T11:59:39.833Z,959.54
2018-04-06T12:00:39.824Z,959.47
2018-04-06T12:01:39.813Z,959.49
2018-04-06T12:02:39.805Z,959.47
2018-04-06T12:03:39.795Z,959.44
2018-04-06T12:04:39.786Z,959.47
2018-04-06T12:05:39.776Z,959.45
2018-04-06T12:06:39.767Z,959.47
2018-04-06T12:07:39.757Z,959.42
2018-04-06T12:08:39.752Z,959.45
2018-04-06T12:09:39.741Z,959.45
2018-04-06T12:10:39.730Z,959.38
2018-04-06T12:11:39.729Z,959.42
2018-04-06T12:12:39.712Z,959.39
2018-04-06T12:13:39.703Z,959.33
2018-04-06T12:14:39.696Z,959.35
2018-04-06T12:15:39.685Z,959.33
2018-04-06T12:16:39.674Z,959.32
2018-04-06T12:17:39.666Z,959.33
2018-04-06T12:18:39.657Z,959.3
2018-04-06T12:19:39.647Z,959.32
2018-04-06T12:20:39.639Z,959.3
2018-04-06T12:21:39.630Z,959.29
2018-04-06T12:22:39.619Z,959.25
2018-04-06T12:23:39.612Z,959.18
2018-04-06T12:24:39.602Z,959.18
2018-04-06T12:25:39.592Z,959.15
2018-04-06T12:26:39.583Z,959.16
2018-04-06T12:27:39.574Z,959.16
2018-04-06T12:28:39.563Z,959.14
2018-04-06T12:29:39.556Z,959.13
2018-04-06T12:30:39.546Z,959.08
2018-04-06T12:31:39.537Z,959.05